createdAt,value
2017-08-19T20:53:33.495Z,5.80
2017-08-19T20:54:33.589Z,5.90
2017-08-19T20:55:33.505Z,4.60
2017-08-19T20:56:33.554Z,5.30
2017-08-19T20:57:33.578Z,7.20
2017-08-19T20:58:33.902Z,5.90
2017-08-19T20:59:33.650Z,4.90
2017-08-19T21:00:33.665Z,5.90
2017-08-19T23:06:10.257Z,5.10
2017-08-19T23:07:09.768Z,5.30
2017-08-19T23:08:09.850Z,2.60
2017-08-19T23:09:09.930Z,7.10
2017-08-19T23:10:09.948Z,5.60
2017-08-19T23:11:09.908Z,5.10
2017-08-19T23:12:09.922Z,4.30
2017-08-19T23:13:10.386Z,3.30
2017-08-19T23:14:10.002Z,3.20
2017-08-19T23:15:10.071Z,5.30
2017-08-19T23:16:10.100Z,7.10
2017-08-19T23:17:10.093Z,6.50
2017-08-19T23:18:10.164Z,2.80
2017-08-19T23:19:10.210Z,3.70
2017-08-19T23:20:10.524Z,4.50
2017-08-19T23:21:10.282Z,4.50
2017-08-19T23:22:10.480Z,3.70
2017-08-19T23:23:10.447Z,4.80
2017-08-19T23:24:10.375Z,4.00
2017-08-19T23:25:10.425Z,4.90
2017-08-19T23:26:10.399Z,4.90
2017-08-19T23:27:10.728Z,4.50
2017-08-19T23:28:10.476Z,3.10
2017-08-19T23:29:10.552Z,7.10
2017-08-19T23:30:10.600Z,4.80
2017-08-19T23:31:10.571Z,6.60
2017-08-19T23:32:10.636Z,8.70
2017-08-19T23:33:10.667Z,6.40
2017-08-19T23:34:11.159Z,6.70
2017-08-19T23:35:10.768Z,7.40
2017-08-19T23:36:10.740Z,6.10
2017-08-19T23:37:10.833Z,7.40
2017-08-19T23:38:10.961Z,6.50
2017-08-19T23:39:10.878Z,8.10
2017-08-19T23:40:10.933Z,6.40
2017-08-19T23:41:11.250Z,4.80
2017-08-19T23:42:10.965Z,3.50
2017-08-19T23:43:11.017Z,4.80
2017-08-19T23:44:11.056Z,7.80
2017-08-19T23:45:11.091Z,5.80
2017-08-19T23:46:11.081Z,9.20
2017-08-19T23:47:11.169Z,7.70
2017-08-19T23:48:11.550Z,10.90
2017-08-19T23:49:11.186Z,11.00
2017-08-19T23:50:11.367Z,10.40
2017-08-19T23:51:11.284Z,10.10
2017-08-19T23:52:11.287Z,12.60
2017-08-19T23:53:11.423Z,8.80
2017-08-19T23:54:11.662Z,12.60
2017-08-19T23:55:11.763Z,12.00
2017-08-19T23:56:11.435Z,8.90
2017-08-19T23:57:11.515Z,8.50
2017-08-19T23:58:11.506Z,7.90
2017-08-19T23:59:11.585Z,11.80
